sensor_id;sensor_type;location;lat;lon;timestamp;P1;durP1;ratioP1;P2;durP2;ratioP2
11877;SDS011;5998;42.676;23.268;2022-08-06T00:01:06;6.03;;;5.43;;
11877;SDS011;5998;42.676;23.268;2022-08-06T00:03:33;6.80;;;4.80;;
11877;SDS011;5998;42.676;23.268;2022-08-06T00:06:00;5.33;;;4.43;;
11877;SDS011;5998;42.676;23.268;2022-08-06T00:08:26;5.90;;;5.07;;
11877;SDS011;5998;42.676;23.268;2022-08-06T00:10:54;5.17;;;4.67;;
11877;SDS011;5998;42.676;23.268;2022-08-06T00:13:21;5.83;;;4.50;;
11877;SDS011;5998;42.676;23.268;2022-08-06T00:15:48;5.47;;;4.50;;
11877;SDS011;5998;42.676;23.268;2022-08-06T00:18:14;6.17;;;4.83;;
11877;SDS011;5998;42.676;23.268;2022-08-06T00:20:41;5.70;;;4.77;;
11877;SDS011;5998;42.676;23.268;2022-08-06T00:23:08;7.40;;;5.07;;
11877;SDS011;5998;42.676;23.268;2022-08-06T00:25:36;6.50;;;5.10;;
11877;SDS011;5998;42.676;23.268;2022-08-06T00:28:04;6.27;;;4.63;;
11877;SDS011;5998;42.676;23.268;2022-08-06T00:30:30;6.53;;;4.77;;
11877;SDS011;5998;42.676;23.268;2022-08-06T00:32:57;5.03;;;4.63;;
11877;SDS011;5998;42.676;23.268;2022-08-06T00:35:24;5.27;;;4.70;;
11877;SDS011;5998;42.676;23.268;2022-08-06T00:37:51;5.23;;;4.73;;
11877;SDS011;5998;42.676;23.268;2022-08-06T00:40:18;5.07;;;4.67;;
11877;SDS011;5998;42.676;23.268;2022-08-06T00:42:46;5.23;;;4.80;;
11877;SDS011;5998;42.676;23.268;2022-08-06T00:45:14;5.77;;;4.83;;
11877;SDS011;5998;42.676;23.268;2022-08-06T00:47:41;5.40;;;4.90;;
11877;SDS011;5998;42.676;23.268;2022-08-06T00:50:08;5.80;;;5.20;;
11877;SDS011;5998;42.676;23.268;2022-08-06T00:52:35;5.30;;;4.90;;
11877;SDS011;5998;42.676;23.268;2022-08-06T00:55:02;5.23;;;4.73;;
11877;SDS011;5998;42.676;23.268;2022-08-06T00:57:29;5.90;;;4.93;;
11877;SDS011;5998;42.676;23.268;2022-08-06T00:59:56;7.83;;;5.33;;
11877;SDS011;5998;42.676;23.268;2022-08-06T01:02:24;5.50;;;5.10;;
11877;SDS011;5998;42.676;23.268;2022-08-06T01:04:51;5.63;;;5.10;;
11877;SDS011;5998;42.676;23.268;2022-08-06T01:07:17;4.83;;;4.37;;
11877;SDS011;5998;42.676;23.268;2022-08-06T01:09:44;5.50;;;5.10;;
11877;SDS011;5998;42.676;23.268;2022-08-06T01:12:11;5.80;;;4.80;;
11877;SDS011;5998;42.676;23.268;2022-08-06T01:14:37;5.30;;;4.80;;
11877;SDS011;5998;42.676;23.268;2022-08-06T01:17:05;6.00;;;5.50;;
11877;SDS011;5998;42.676;23.268;2022-08-06T01:22:41;5.50;;;5.00;;
11877;SDS011;5998;42.676;23.268;2022-08-06T01:28:37;5.37;;;4.87;;
11877;SDS011;5998;42.676;23.268;2022-08-06T01:31:09;5.63;;;5.00;;
11877;SDS011;5998;42.676;23.268;2022-08-06T01:33:41;6.00;;;5.40;;
11877;SDS011;5998;42.676;23.268;2022-08-06T01:36:11;5.60;;;5.10;;
11877;SDS011;5998;42.676;23.268;2022-08-06T01:38:46;10.20;;;5.47;;
11877;SDS011;5998;42.676;23.268;2022-08-06T01:41:16;6.73;;;4.93;;
11877;SDS011;5998;42.676;23.268;2022-08-06T01:44:02;14.30;;;5.87;;
11877;SDS011;5998;42.676;23.268;2022-08-06T01:46:30;6.60;;;5.83;;
11877;SDS011;5998;42.676;23.268;2022-08-06T01:48:57;7.53;;;5.33;;
11877;SDS011;5998;42.676;23.268;2022-08-06T01:51:26;9.07;;;5.97;;
11877;SDS011;5998;42.676;23.268;2022-08-06T01:53:54;7.73;;;5.40;;
11877;SDS011;5998;42.676;23.268;2022-08-06T01:56:22;5.93;;;5.20;;
11877;SDS011;5998;42.676;23.268;2022-08-06T01:58:49;6.20;;;5.60;;
11877;SDS011;5998;42.676;23.268;2022-08-06T02:01:21;7.30;;;5.40;;
11877;SDS011;5998;42.676;23.268;2022-08-06T02:03:51;6.90;;;5.40;;
11877;SDS011;5998;42.676;23.268;2022-08-06T02:06:21;6.00;;;5.40;;
11877;SDS011;5998;42.676;23.268;2022-08-06T02:08:51;5.87;;;5.23;;
11877;SDS011;5998;42.676;23.268;2022-08-06T02:11:19;6.40;;;5.80;;
11877;SDS011;5998;42.676;23.268;2022-08-06T02:13:46;6.50;;;5.83;;
11877;SDS011;5998;42.676;23.268;2022-08-06T02:16:14;7.23;;;6.13;;
11877;SDS011;5998;42.676;23.268;2022-08-06T02:18:45;7.60;;;6.00;;
11877;SDS011;5998;42.676;23.268;2022-08-06T02:21:15;6.00;;;5.40;;
11877;SDS011;5998;42.676;23.268;2022-08-06T02:23:45;7.33;;;5.63;;
11877;SDS011;5998;42.676;23.268;2022-08-06T02:26:13;8.37;;;6.20;;
11877;SDS011;5998;42.676;23.268;2022-08-06T02:28:41;11.13;;;6.00;;
11877;SDS011;5998;42.676;23.268;2022-08-06T02:31:09;7.57;;;6.27;;
11877;SDS011;5998;42.676;23.268;2022-08-06T02:33:36;7.53;;;6.30;;
11877;SDS011;5998;42.676;23.268;2022-08-06T02:36:07;11.57;;;6.13;;
11877;SDS011;5998;42.676;23.268;2022-08-06T02:38:44;9.10;;;6.33;;
11877;SDS011;5998;42.676;23.268;2022-08-06T02:41:16;12.43;;;7.03;;
11877;SDS011;5998;42.676;23.268;2022-08-06T02:43:49;7.97;;;6.03;;
11877;SDS011;5998;42.676;23.268;2022-08-06T02:46:21;8.00;;;5.53;;
11877;SDS011;5998;42.676;23.268;2022-08-06T02:48:52;6.60;;;5.87;;
11877;SDS011;5998;42.676;23.268;2022-08-06T02:51:28;8.63;;;6.20;;
11877;SDS011;5998;42.676;23.268;2022-08-06T02:53:59;6.73;;;6.07;;
11877;SDS011;5998;42.676;23.268;2022-08-06T02:56:32;11.07;;;6.53;;
11877;SDS011;5998;42.676;23.268;2022-08-06T02:59:01;8.57;;;6.23;;
11877;SDS011;5998;42.676;23.268;2022-08-06T03:01:30;12.67;;;6.40;;
11877;SDS011;5998;42.676;23.268;2022-08-06T03:04:00;7.20;;;5.90;;
11877;SDS011;5998;42.676;23.268;2022-08-06T03:06:32;7.77;;;6.40;;
11877;SDS011;5998;42.676;23.268;2022-08-06T03:09:02;10.33;;;7.10;;
11877;SDS011;5998;42.676;23.268;2022-08-06T03:11:32;8.67;;;7.03;;
11877;SDS011;5998;42.676;23.268;2022-08-06T03:14:01;10.83;;;6.47;;
11877;SDS011;5998;42.676;23.268;2022-08-06T03:16:29;8.73;;;6.17;;
11877;SDS011;5998;42.676;23.268;2022-08-06T03:19:00;10.13;;;6.97;;
11877;SDS011;5998;42.676;23.268;2022-08-06T03:21:28;8.40;;;6.60;;
11877;SDS011;5998;42.676;23.268;2022-08-06T03:23:59;6.50;;;5.90;;
11877;SDS011;5998;42.676;23.268;2022-08-06T03:26:27;7.10;;;6.20;;
11877;SDS011;5998;42.676;23.268;2022-08-06T03:28:57;7.97;;;5.93;;
11877;SDS011;5998;42.676;23.268;2022-08-06T03:31:26;8.53;;;6.63;;
11877;SDS011;5998;42.676;23.268;2022-08-06T03:33:55;9.03;;;5.73;;
11877;SDS011;5998;42.676;23.268;2022-08-06T03:36:23;8.97;;;6.10;;
11877;SDS011;5998;42.676;23.268;2022-08-06T03:38:54;7.37;;;6.00;;
11877;SDS011;5998;42.676;23.268;2022-08-06T03:41:23;8.53;;;5.90;;
11877;SDS011;5998;42.676;23.268;2022-08-06T03:43:50;6.83;;;6.17;;
11877;SDS011;5998;42.676;23.268;2022-08-06T03:46:19;12.23;;;6.80;;
11877;SDS011;5998;42.676;23.268;2022-08-06T03:48:49;8.63;;;6.30;;
11877;SDS011;5998;42.676;23.268;2022-08-06T03:51:20;11.53;;;6.43;;
11877;SDS011;5998;42.676;23.268;2022-08-06T03:53:50;11.87;;;7.13;;
11877;SDS011;5998;42.676;23.268;2022-08-06T03:56:22;8.97;;;6.73;;
11877;SDS011;5998;42.676;23.268;2022-08-06T03:58:52;7.97;;;5.80;;
11877;SDS011;5998;42.676;23.268;2022-08-06T04:01:21;8.27;;;6.20;;
11877;SDS011;5998;42.676;23.268;2022-08-06T04:03:52;6.07;;;5.47;;
11877;SDS011;5998;42.676;23.268;2022-08-06T04:06:21;7.97;;;5.83;;
11877;SDS011;5998;42.676;23.268;2022-08-06T04:08:50;7.50;;;4.97;;
11877;SDS011;5998;42.676;23.268;2022-08-06T04:11:20;8.47;;;5.60;;
11877;SDS011;5998;42.676;23.268;2022-08-06T04:13:48;8.40;;;5.43;;
11877;SDS011;5998;42.676;23.268;2022-08-06T04:16:15;9.93;;;5.87;;
11877;SDS011;5998;42.676;23.268;2022-08-06T04:18:43;6.87;;;5.77;;
11877;SDS011;5998;42.676;23.268;2022-08-06T04:21:14;10.57;;;6.30;;
11877;SDS011;5998;42.676;23.268;2022-08-06T04:23:45;10.13;;;6.30;;
11877;SDS011;5998;42.676;23.268;2022-08-06T04:26:14;6.67;;;5.83;;
11877;SDS011;5998;42.676;23.268;2022-08-06T04:28:46;11.90;;;6.37;;
11877;SDS011;5998;42.676;23.268;2022-08-06T04:31:14;8.63;;;6.10;;
11877;SDS011;5998;42.676;23.268;2022-08-06T04:33:43;7.93;;;6.37;;
11877;SDS011;5998;42.676;23.268;2022-08-06T04:36:11;9.07;;;5.87;;
11877;SDS011;5998;42.676;23.268;2022-08-06T04:38:39;9.30;;;5.93;;
11877;SDS011;5998;42.676;23.268;2022-08-06T04:41:07;6.80;;;6.10;;
11877;SDS011;5998;42.676;23.268;2022-08-06T04:43:35;7.10;;;6.40;;
11877;SDS011;5998;42.676;23.268;2022-08-06T04:46:02;7.73;;;6.97;;
11877;SDS011;5998;42.676;23.268;2022-08-06T04:48:30;9.43;;;7.10;;
11877;SDS011;5998;42.676;23.268;2022-08-06T04:50:57;15.77;;;6.90;;
11877;SDS011;5998;42.676;23.268;2022-08-06T04:53:24;7.43;;;6.67;;
11877;SDS011;5998;42.676;23.268;2022-08-06T04:55:51;6.50;;;5.90;;
11877;SDS011;5998;42.676;23.268;2022-08-06T04:58:17;7.00;;;6.17;;
11877;SDS011;5998;42.676;23.268;2022-08-06T05:00:46;9.60;;;5.30;;
11877;SDS011;5998;42.676;23.268;2022-08-06T05:03:13;7.07;;;6.43;;
11877;SDS011;5998;42.676;23.268;2022-08-06T05:05:42;9.30;;;6.70;;
11877;SDS011;5998;42.676;23.268;2022-08-06T05:08:12;7.13;;;6.17;;
11877;SDS011;5998;42.676;23.268;2022-08-06T05:10:41;8.93;;;6.20;;
11877;SDS011;5998;42.676;23.268;2022-08-06T05:13:13;10.80;;;6.50;;
11877;SDS011;5998;42.676;23.268;2022-08-06T05:15:42;8.47;;;6.63;;
11877;SDS011;5998;42.676;23.268;2022-08-06T05:18:14;8.40;;;6.50;;
11877;SDS011;5998;42.676;23.268;2022-08-06T05:20:46;8.57;;;6.00;;
11877;SDS011;5998;42.676;23.268;2022-08-06T05:23:17;5.80;;;5.13;;
11877;SDS011;5998;42.676;23.268;2022-08-06T05:26:00;10.67;;;6.40;;
11877;SDS011;5998;42.676;23.268;2022-08-06T05:28:27;6.60;;;6.00;;
11877;SDS011;5998;42.676;23.268;2022-08-06T05:30:54;8.27;;;6.70;;
11877;SDS011;5998;42.676;23.268;2022-08-06T05:33:23;7.47;;;6.00;;
11877;SDS011;5998;42.676;23.268;2022-08-06T05:35:51;7.23;;;6.43;;
11877;SDS011;5998;42.676;23.268;2022-08-06T05:38:17;7.30;;;6.60;;
11877;SDS011;5998;42.676;23.268;2022-08-06T05:40:45;7.80;;;7.00;;
11877;SDS011;5998;42.676;23.268;2022-08-06T05:43:12;9.73;;;6.30;;
11877;SDS011;5998;42.676;23.268;2022-08-06T05:45:39;6.83;;;6.10;;
11877;SDS011;5998;42.676;23.268;2022-08-06T05:48:07;7.77;;;5.63;;
11877;SDS011;5998;42.676;23.268;2022-08-06T05:50:54;7.30;;;6.63;;
11877;SDS011;5998;42.676;23.268;2022-08-06T05:53:25;6.13;;;5.53;;
11877;SDS011;5998;42.676;23.268;2022-08-06T05:55:57;11.77;;;6.43;;
11877;SDS011;5998;42.676;23.268;2022-08-06T05:58:28;5.80;;;5.23;;
11877;SDS011;5998;42.676;23.268;2022-08-06T06:00:58;7.53;;;6.77;;
11877;SDS011;5998;42.676;23.268;2022-08-06T06:03:26;7.77;;;6.93;;
11877;SDS011;5998;42.676;23.268;2022-08-06T06:05:55;10.07;;;7.37;;
11877;SDS011;5998;42.676;23.268;2022-08-06T06:08:24;9.20;;;7.63;;
11877;SDS011;5998;42.676;23.268;2022-08-06T06:10:52;7.43;;;6.23;;
11877;SDS011;5998;42.676;23.268;2022-08-06T06:13:19;8.63;;;7.00;;
11877;SDS011;5998;42.676;23.268;2022-08-06T06:15:49;14.23;;;7.20;;
11877;SDS011;5998;42.676;23.268;2022-08-06T06:18:24;11.67;;;6.80;;
11877;SDS011;5998;42.676;23.268;2022-08-06T06:21:00;12.33;;;7.37;;
11877;SDS011;5998;42.676;23.268;2022-08-06T06:23:34;8.43;;;6.47;;
11877;SDS011;5998;42.676;23.268;2022-08-06T06:26:21;9.10;;;5.50;;
11877;SDS011;5998;42.676;23.268;2022-08-06T06:29:02;7.20;;;6.50;;
11877;SDS011;5998;42.676;23.268;2022-08-06T06:31:35;9.00;;;6.43;;
11877;SDS011;5998;42.676;23.268;2022-08-06T06:34:07;8.27;;;6.50;;
11877;SDS011;5998;42.676;23.268;2022-08-06T06:36:39;7.00;;;6.40;;
11877;SDS011;5998;42.676;23.268;2022-08-06T06:39:16;9.77;;;6.55;;
11877;SDS011;5998;42.676;23.268;2022-08-06T06:41:51;11.35;;;6.55;;
11877;SDS011;5998;42.676;23.268;2022-08-06T06:44:23;11.35;;;6.85;;
11877;SDS011;5998;42.676;23.268;2022-08-06T06:47:00;5.43;;;5.03;;
11877;SDS011;5998;42.676;23.268;2022-08-06T06:49:32;10.23;;;6.00;;
11877;SDS011;5998;42.676;23.268;2022-08-06T06:52:07;8.60;;;6.50;;
11877;SDS011;5998;42.676;23.268;2022-08-06T06:54:38;11.32;;;6.82;;
11877;SDS011;5998;42.676;23.268;2022-08-06T06:57:09;7.72;;;6.88;;
11877;SDS011;5998;42.676;23.268;2022-08-06T06:59:38;9.15;;;6.10;;
11877;SDS011;5998;42.676;23.268;2022-08-06T07:02:11;8.18;;;5.90;;
11877;SDS011;5998;42.676;23.268;2022-08-06T07:04:42;6.25;;;5.65;;
11877;SDS011;5998;42.676;23.268;2022-08-06T07:07:13;7.22;;;6.07;;
11877;SDS011;5998;42.676;23.268;2022-08-06T07:09:42;7.25;;;5.90;;
11877;SDS011;5998;42.676;23.268;2022-08-06T07:12:11;11.35;;;5.78;;
11877;SDS011;5998;42.676;23.268;2022-08-06T07:14:40;8.43;;;6.32;;
11877;SDS011;5998;42.676;23.268;2022-08-06T07:17:09;10.05;;;6.43;;
11877;SDS011;5998;42.676;23.268;2022-08-06T07:19:37;10.68;;;6.13;;
11877;SDS011;5998;42.676;23.268;2022-08-06T07:22:05;6.57;;;6.00;;
11877;SDS011;5998;42.676;23.268;2022-08-06T07:24:35;8.60;;;6.03;;
11877;SDS011;5998;42.676;23.268;2022-08-06T07:27:03;10.50;;;6.13;;
11877;SDS011;5998;42.676;23.268;2022-08-06T07:29:30;6.68;;;6.07;;
11877;SDS011;5998;42.676;23.268;2022-08-06T07:31:57;6.40;;;5.90;;
11877;SDS011;5998;42.676;23.268;2022-08-06T07:34:26;6.00;;;5.43;;
11877;SDS011;5998;42.676;23.268;2022-08-06T07:36:53;9.30;;;5.68;;
11877;SDS011;5998;42.676;23.268;2022-08-06T07:39:22;5.97;;;5.38;;
11877;SDS011;5998;42.676;23.268;2022-08-06T07:41:55;7.85;;;5.65;;
11877;SDS011;5998;42.676;23.268;2022-08-06T07:44:25;8.48;;;5.70;;
11877;SDS011;5998;42.676;23.268;2022-08-06T07:46:54;5.47;;;5.03;;
11877;SDS011;5998;42.676;23.268;2022-08-06T07:49:25;7.22;;;5.43;;
11877;SDS011;5998;42.676;23.268;2022-08-06T07:52:02;8.57;;;5.72;;
11877;SDS011;5998;42.676;23.268;2022-08-06T07:54:30;7.07;;;5.13;;
11877;SDS011;5998;42.676;23.268;2022-08-06T07:56:59;8.18;;;5.65;;
11877;SDS011;5998;42.676;23.268;2022-08-06T07:59:27;6.60;;;5.20;;
11877;SDS011;5998;42.676;23.268;2022-08-06T08:01:56;11.10;;;5.65;;
11877;SDS011;5998;42.676;23.268;2022-08-06T08:04:23;6.78;;;5.50;;
11877;SDS011;5998;42.676;23.268;2022-08-06T08:07:08;7.10;;;5.28;;
11877;SDS011;5998;42.676;23.268;2022-08-06T08:09:35;7.68;;;5.22;;
11877;SDS011;5998;42.676;23.268;2022-08-06T08:12:04;5.95;;;5.03;;
11877;SDS011;5998;42.676;23.268;2022-08-06T08:14:32;7.40;;;4.82;;
11877;SDS011;5998;42.676;23.268;2022-08-06T08:17:00;5.47;;;4.88;;
11877;SDS011;5998;42.676;23.268;2022-08-06T08:19:27;7.28;;;4.55;;
11877;SDS011;5998;42.676;23.268;2022-08-06T08:21:57;5.90;;;4.70;;
11877;SDS011;5998;42.676;23.268;2022-08-06T08:24:24;4.30;;;3.90;;
11877;SDS011;5998;42.676;23.268;2022-08-06T08:26:52;5.55;;;3.75;;
11877;SDS011;5998;42.676;23.268;2022-08-06T08:29:21;6.07;;;3.75;;
11877;SDS011;5998;42.676;23.268;2022-08-06T08:31:47;3.70;;;3.42;;
11877;SDS011;5998;42.676;23.268;2022-08-06T08:34:14;4.82;;;3.42;;
11877;SDS011;5998;42.676;23.268;2022-08-06T08:36:41;3.75;;;3.45;;
11877;SDS011;5998;42.676;23.268;2022-08-06T08:39:08;4.05;;;3.50;;
11877;SDS011;5998;42.676;23.268;2022-08-06T08:41:38;5.40;;;4.20;;
11877;SDS011;5998;42.676;23.268;2022-08-06T08:44:07;4.90;;;3.90;;
11877;SDS011;5998;42.676;23.268;2022-08-06T08:46:38;4.95;;;3.65;;
11877;SDS011;5998;42.676;23.268;2022-08-06T08:49:06;4.35;;;3.95;;
11877;SDS011;5998;42.676;23.268;2022-08-06T08:51:38;7.72;;;4.32;;
11877;SDS011;5998;42.676;23.268;2022-08-06T08:54:08;7.07;;;4.10;;
11877;SDS011;5998;42.676;23.268;2022-08-06T08:56:36;4.40;;;4.00;;
11877;SDS011;5998;42.676;23.268;2022-08-06T08:59:04;5.38;;;3.83;;
11877;SDS011;5998;42.676;23.268;2022-08-06T09:01:31;7.47;;;4.30;;
11877;SDS011;5998;42.676;23.268;2022-08-06T09:03:59;4.97;;;4.00;;
11877;SDS011;5998;42.676;23.268;2022-08-06T09:06:29;5.60;;;4.35;;
11877;SDS011;5998;42.676;23.268;2022-08-06T09:08:57;4.32;;;4.03;;
11877;SDS011;5998;42.676;23.268;2022-08-06T09:11:29;5.13;;;4.00;;
11877;SDS011;5998;42.676;23.268;2022-08-06T09:13:56;5.65;;;4.38;;
11877;SDS011;5998;42.676;23.268;2022-08-06T09:16:25;4.38;;;4.03;;
11877;SDS011;5998;42.676;23.268;2022-08-06T09:18:52;4.90;;;4.47;;
11877;SDS011;5998;42.676;23.268;2022-08-06T09:21:21;4.22;;;3.83;;
11877;SDS011;5998;42.676;23.268;2022-08-06T09:23:47;4.93;;;3.83;;
11877;SDS011;5998;42.676;23.268;2022-08-06T09:26:14;4.10;;;3.80;;
11877;SDS011;5998;42.676;23.268;2022-08-06T09:28:41;4.93;;;4.22;;
11877;SDS011;5998;42.676;23.268;2022-08-06T09:31:09;7.22;;;4.18;;
11877;SDS011;5998;42.676;23.268;2022-08-06T09:33:38;6.43;;;4.28;;
11877;SDS011;5998;42.676;23.268;2022-08-06T09:36:06;4.25;;;3.85;;
11877;SDS011;5998;42.676;23.268;2022-08-06T09:38:45;5.43;;;3.97;;
11877;SDS011;5998;42.676;23.268;2022-08-06T09:41:13;4.18;;;3.88;;
11877;SDS011;5998;42.676;23.268;2022-08-06T09:43:42;5.00;;;4.00;;
11877;SDS011;5998;42.676;23.268;2022-08-06T09:46:10;4.20;;;3.72;;
11877;SDS011;5998;42.676;23.268;2022-08-06T09:48:36;5.15;;;3.67;;
11877;SDS011;5998;42.676;23.268;2022-08-06T09:51:04;3.80;;;3.50;;
11877;SDS011;5998;42.676;23.268;2022-08-06T09:53:30;4.15;;;3.83;;
11877;SDS011;5998;42.676;23.268;2022-08-06T09:55:58;3.60;;;3.30;;
11877;SDS011;5998;42.676;23.268;2022-08-06T09:58:26;5.82;;;3.75;;
11877;SDS011;5998;42.676;23.268;2022-08-06T10:00:54;4.20;;;3.80;;
11877;SDS011;5998;42.676;23.268;2022-08-06T10:03:21;4.82;;;4.03;;
11877;SDS011;5998;42.676;23.268;2022-08-06T10:06:01;5.10;;;3.95;;
11877;SDS011;5998;42.676;23.268;2022-08-06T10:08:29;7.63;;;3.67;;
11877;SDS011;5998;42.676;23.268;2022-08-06T10:10:56;4.53;;;3.72;;
11877;SDS011;5998;42.676;23.268;2022-08-06T10:13:29;4.20;;;3.90;;
11877;SDS011;5998;42.676;23.268;2022-08-06T10:15:58;4.75;;;4.15;;
11877;SDS011;5998;42.676;23.268;2022-08-06T10:18:33;4.57;;;3.80;;
11877;SDS011;5998;42.676;23.268;2022-08-06T10:21:03;7.28;;;3.83;;
11877;SDS011;5998;42.676;23.268;2022-08-06T10:23:31;5.22;;;3.85;;
11877;SDS011;5998;42.676;23.268;2022-08-06T10:26:00;4.40;;;3.88;;
11877;SDS011;5998;42.676;23.268;2022-08-06T10:28:32;4.93;;;3.75;;
11877;SDS011;5998;42.676;23.268;2022-08-06T10:31:01;7.07;;;4.25;;
11877;SDS011;5998;42.676;23.268;2022-08-06T10:33:31;4.90;;;3.95;;
11877;SDS011;5998;42.676;23.268;2022-08-06T10:36:00;4.25;;;3.85;;
11877;SDS011;5998;42.676;23.268;2022-08-06T10:38:33;4.10;;;3.80;;
11877;SDS011;5998;42.676;23.268;2022-08-06T10:41:02;3.95;;;3.65;;
11877;SDS011;5998;42.676;23.268;2022-08-06T10:43:34;5.28;;;4.13;;
11877;SDS011;5998;42.676;23.268;2022-08-06T10:46:03;4.35;;;3.95;;
11877;SDS011;5998;42.676;23.268;2022-08-06T10:48:32;5.38;;;4.20;;
11877;SDS011;5998;42.676;23.268;2022-08-06T10:51:00;5.40;;;4.30;;
11877;SDS011;5998;42.676;23.268;2022-08-06T10:53:28;4.90;;;4.00;;
11877;SDS011;5998;42.676;23.268;2022-08-06T10:55:56;4.30;;;4.00;;
11877;SDS011;5998;42.676;23.268;2022-08-06T10:58:27;7.80;;;4.07;;
11877;SDS011;5998;42.676;23.268;2022-08-06T11:00:56;5.57;;;3.80;;
11877;SDS011;5998;42.676;23.268;2022-08-06T11:03:28;5.30;;;3.78;;
11877;SDS011;5998;42.676;23.268;2022-08-06T11:06:09;6.10;;;3.80;;
11877;SDS011;5998;42.676;23.268;2022-08-06T11:08:50;4.90;;;3.70;;
11877;SDS011;5998;42.676;23.268;2022-08-06T11:11:27;5.80;;;3.90;;
11877;SDS011;5998;42.676;23.268;2022-08-06T11:14:05;4.55;;;3.88;;
11877;SDS011;5998;42.676;23.268;2022-08-06T11:16:36;6.88;;;3.58;;
11877;SDS011;5998;42.676;23.268;2022-08-06T11:19:04;3.83;;;3.53;;
11877;SDS011;5998;42.676;23.268;2022-08-06T11:21:36;4.43;;;3.80;;
11877;SDS011;5998;42.676;23.268;2022-08-06T11:24:05;3.70;;;3.40;;
11877;SDS011;5998;42.676;23.268;2022-08-06T11:26:34;4.47;;;3.30;;
11877;SDS011;5998;42.676;23.268;2022-08-06T11:29:02;4.82;;;3.20;;
11877;SDS011;5998;42.676;23.268;2022-08-06T11:31:31;3.88;;;3.58;;
11877;SDS011;5998;42.676;23.268;2022-08-06T11:34:09;5.78;;;3.50;;
11877;SDS011;5998;42.676;23.268;2022-08-06T11:36:46;4.50;;;4.10;;
11877;SDS011;5998;42.676;23.268;2022-08-06T11:39:15;3.80;;;3.60;;
11877;SDS011;5998;42.676;23.268;2022-08-06T11:41:49;4.25;;;3.70;;
11877;SDS011;5998;42.676;23.268;2022-08-06T11:44:18;5.07;;;3.70;;
11877;SDS011;5998;42.676;23.268;2022-08-06T11:46:47;5.90;;;4.43;;
11877;SDS011;5998;42.676;23.268;2022-08-06T11:49:19;6.57;;;3.92;;
11877;SDS011;5998;42.676;23.268;2022-08-06T11:51:49;6.55;;;4.25;;
11877;SDS011;5998;42.676;23.268;2022-08-06T11:54:18;4.35;;;3.95;;
11877;SDS011;5998;42.676;23.268;2022-08-06T12:00:05;5.25;;;4.75;;
11877;SDS011;5998;42.676;23.268;2022-08-06T12:02:46;5.78;;;4.22;;
11877;SDS011;5998;42.676;23.268;2022-08-06T12:05:42;4.15;;;3.95;;
11877;SDS011;5998;42.676;23.268;2022-08-06T12:08:16;4.72;;;4.22;;
11877;SDS011;5998;42.676;23.268;2022-08-06T12:13:53;4.90;;;4.30;;
11877;SDS011;5998;42.676;23.268;2022-08-06T12:16:34;5.07;;;4.60;;
11877;SDS011;5998;42.676;23.268;2022-08-06T12:19:04;4.95;;;4.35;;
11877;SDS011;5998;42.676;23.268;2022-08-06T12:21:36;4.47;;;4.18;;
11877;SDS011;5998;42.676;23.268;2022-08-06T12:24:05;4.40;;;4.10;;
11877;SDS011;5998;42.676;23.268;2022-08-06T12:26:32;4.53;;;4.20;;
11877;SDS011;5998;42.676;23.268;2022-08-06T12:29:05;4.70;;;4.40;;
11877;SDS011;5998;42.676;23.268;2022-08-06T12:31:37;6.97;;;4.70;;
11877;SDS011;5998;42.676;23.268;2022-08-06T12:34:06;5.22;;;4.40;;
11877;SDS011;5998;42.676;23.268;2022-08-06T12:36:34;4.50;;;4.18;;
11877;SDS011;5998;42.676;23.268;2022-08-06T12:39:04;4.68;;;4.25;;
11877;SDS011;5998;42.676;23.268;2022-08-06T12:41:33;5.00;;;4.60;;
11877;SDS011;5998;42.676;23.268;2022-08-06T12:44:06;8.52;;;4.30;;
11877;SDS011;5998;42.676;23.268;2022-08-06T12:46:37;4.93;;;4.40;;
11877;SDS011;5998;42.676;23.268;2022-08-06T12:49:04;6.43;;;4.55;;
11877;SDS011;5998;42.676;23.268;2022-08-06T12:51:33;6.03;;;4.45;;
11877;SDS011;5998;42.676;23.268;2022-08-06T12:54:02;5.07;;;4.55;;
11877;SDS011;5998;42.676;23.268;2022-08-06T12:56:31;4.75;;;4.35;;
11877;SDS011;5998;42.676;23.268;2022-08-06T12:59:01;7.35;;;4.68;;
11877;SDS011;5998;42.676;23.268;2022-08-06T13:01:30;6.18;;;4.68;;
11877;SDS011;5998;42.676;23.268;2022-08-06T13:03:58;5.65;;;4.72;;
11877;SDS011;5998;42.676;23.268;2022-08-06T13:06:27;4.07;;;3.78;;
11877;SDS011;5998;42.676;23.268;2022-08-06T13:08:57;4.35;;;4.05;;
11877;SDS011;5998;42.676;23.268;2022-08-06T13:11:30;5.63;;;3.92;;
11877;SDS011;5998;42.676;23.268;2022-08-06T13:13:58;4.50;;;4.20;;
11877;SDS011;5998;42.676;23.268;2022-08-06T13:16:37;6.13;;;4.38;;
11877;SDS011;5998;42.676;23.268;2022-08-06T13:19:05;4.32;;;4.03;;
11877;SDS011;5998;42.676;23.268;2022-08-06T13:21:34;3.88;;;3.60;;
11877;SDS011;5998;42.676;23.268;2022-08-06T13:24:04;4.45;;;4.15;;
11877;SDS011;5998;42.676;23.268;2022-08-06T13:26:33;4.25;;;3.85;;
11877;SDS011;5998;42.676;23.268;2022-08-06T13:29:04;5.60;;;4.18;;
11877;SDS011;5998;42.676;23.268;2022-08-06T13:31:33;4.95;;;4.55;;
11877;SDS011;5998;42.676;23.268;2022-08-06T13:34:00;4.75;;;4.35;;
11877;SDS011;5998;42.676;23.268;2022-08-06T13:36:29;4.68;;;4.20;;
11877;SDS011;5998;42.676;23.268;2022-08-06T13:38:56;4.90;;;3.80;;
11877;SDS011;5998;42.676;23.268;2022-08-06T13:41:30;4.70;;;4.30;;
11877;SDS011;5998;42.676;23.268;2022-08-06T13:43:58;6.03;;;4.53;;
11877;SDS011;5998;42.676;23.268;2022-08-06T13:46:26;4.47;;;4.15;;
11877;SDS011;5998;42.676;23.268;2022-08-06T13:48:54;5.40;;;4.90;;
11877;SDS011;5998;42.676;23.268;2022-08-06T13:51:22;4.60;;;4.20;;
11877;SDS011;5998;42.676;23.268;2022-08-06T13:53:49;4.68;;;4.20;;
11877;SDS011;5998;42.676;23.268;2022-08-06T13:56:16;4.65;;;4.25;;
11877;SDS011;5998;42.676;23.268;2022-08-06T13:58:44;4.38;;;3.97;;
11877;SDS011;5998;42.676;23.268;2022-08-06T14:01:12;5.03;;;4.50;;
11877;SDS011;5998;42.676;23.268;2022-08-06T14:03:39;5.47;;;4.50;;
11877;SDS011;5998;42.676;23.268;2022-08-06T14:06:06;4.90;;;4.47;;
11877;SDS011;5998;42.676;23.268;2022-08-06T14:08:33;4.70;;;4.30;;
11877;SDS011;5998;42.676;23.268;2022-08-06T14:11:00;5.72;;;4.32;;
11877;SDS011;5998;42.676;23.268;2022-08-06T14:13:27;4.70;;;4.30;;
11877;SDS011;5998;42.676;23.268;2022-08-06T14:15:55;4.78;;;4.38;;
11877;SDS011;5998;42.676;23.268;2022-08-06T14:18:25;4.60;;;4.30;;
11877;SDS011;5998;42.676;23.268;2022-08-06T14:20:54;4.93;;;4.45;;
11877;SDS011;5998;42.676;23.268;2022-08-06T14:23:21;4.40;;;4.10;;
11877;SDS011;5998;42.676;23.268;2022-08-06T14:25:48;4.80;;;4.32;;
11877;SDS011;5998;42.676;23.268;2022-08-06T14:28:14;4.40;;;4.10;;
11877;SDS011;5998;42.676;23.268;2022-08-06T14:30:42;4.30;;;4.03;;
11877;SDS011;5998;42.676;23.268;2022-08-06T14:33:10;4.35;;;4.00;;
11877;SDS011;5998;42.676;23.268;2022-08-06T14:35:37;5.38;;;4.15;;
11877;SDS011;5998;42.676;23.268;2022-08-06T14:38:04;4.50;;;4.20;;
11877;SDS011;5998;42.676;23.268;2022-08-06T14:40:32;5.43;;;4.93;;
11877;SDS011;5998;42.676;23.268;2022-08-06T14:43:16;4.60;;;4.15;;
11877;SDS011;5998;42.676;23.268;2022-08-06T14:46:01;5.43;;;4.07;;
11877;SDS011;5998;42.676;23.268;2022-08-06T14:48:29;4.45;;;4.15;;
11877;SDS011;5998;42.676;23.268;2022-08-06T14:50:55;4.82;;;4.35;;
11877;SDS011;5998;42.676;23.268;2022-08-06T14:53:23;7.20;;;4.30;;
11877;SDS011;5998;42.676;23.268;2022-08-06T14:55:49;5.40;;;4.90;;
11877;SDS011;5998;42.676;23.268;2022-08-06T14:58:16;5.28;;;4.78;;
11877;SDS011;5998;42.676;23.268;2022-08-06T15:00:43;5.38;;;4.88;;
11877;SDS011;5998;42.676;23.268;2022-08-06T15:03:12;4.55;;;4.25;;
11877;SDS011;5998;42.676;23.268;2022-08-06T15:05:41;5.43;;;4.95;;
11877;SDS011;5998;42.676;23.268;2022-08-06T15:08:08;5.13;;;4.72;;
11877;SDS011;5998;42.676;23.268;2022-08-06T15:10:34;5.68;;;5.15;;
11877;SDS011;5998;42.676;23.268;2022-08-06T15:13:01;5.75;;;4.85;;